Fairbanks, AK

12:04 AM AKST on November 26, 2014 (GMT -0900)
Ladd Army Air Field | Change Station
CLOSE
Current Station
Airport
Location: Fairbanks Ft. Wainwright,
Elevation: 453 ft
Nearby Weather Stations

Elev 453 ft 64.84 °N, 147.61 °W | Updated 8 minutes ago

Light Snow
Light Snow
14 °F
Feels Like 8 °F
N
4
Wind Variable Wind from WSW

Today
High -- | Low -- °F
--% Chance of Precip.
Yesterday
High -- | Low -- °F
Precip. -- in
10:03 AM 3:12 PM
Waxing Crescent, 18% visible
Pressure 30.44 in
Visibility 7.0 miles
Clouds Overcast 3000 ft
Windchill 8 °F
Dew Point 10 °F
Humidity 84%
Rainfall 0.09 in
Snow Depth Not available.
UV 0 out of 12
Pollen Not available.
Air Quality Not available.
Flu Activity Not available.
METAR PAFB 260856Z AUTO 24003KT 7SM -SN OVC030 M10/M12 A3040 RMK SNE04B24 SLP307 P0000 60000 T11001122 53018 $ VIA AUTODIAL

More Conditions Fewer Conditions

Pressure 30.44 in
Visibility 7.0 miles
Clouds Overcast 3000 ft
Windchill 8 °F
Dew Point 10 °F
Humidity 84%
Rainfall 0.09 in
Snow Depth Not available.
UV 0 out of 12
Pollen Not available.
Air Quality Not available.
Flu Activity Not available.
METAR PAFB 260856Z AUTO 24003KT 7SM -SN OVC030 M10/M12 A3040 RMK SNE04B24 SLP307 P0000 60000 T11001122 53018 $ VIA AUTODIAL

More Conditions Fewer Conditions

10-Day Weather Forecast

Almanac

Astronomy

Nov. 26, 2014 Rise Set
Actual Time
Civil Twilight
Nautical Twilight
Astronomical Twilight
Moon
Length of Visible Light
Length of Day
Tomorrow will be .
, % of the Moon is Illuminated

Today's Extremes

State Highs State Lows

Community

WunderPhotos

Upload Photos

1,773,694 photos uploaded!

WunderBlogs® & News

Nearby

Air Quality

  Air Quality AQ Index Pollutant
Not available.

Snow Depth

Station Depth Elevation

Earthquake Activity

City Distance Mag. Time & Date
Minimum magnitude displayed is 2.5.

Coastal Water Temperatures

Place Temperature

Nearby Weather Stations